createdAt,value
2018-07-27T00:01:20.679Z,21.30
2018-07-27T00:03:47.961Z,21.30
2018-07-27T00:06:15.330Z,21.20
2018-07-27T00:08:42.668Z,21.30
2018-07-27T00:11:09.979Z,21.30
2018-07-27T00:13:37.292Z,21.30
2018-07-27T00:16:04.572Z,21.20
2018-07-27T00:18:31.897Z,21.20
2018-07-27T00:20:59.151Z,21.20
2018-07-27T00:23:26.378Z,21.10
2018-07-27T00:25:53.680Z,21.20
2018-07-27T00:28:20.915Z,21.10
2018-07-27T00:30:48.255Z,21.10
2018-07-27T00:33:15.544Z,21.10
2018-07-27T00:35:42.823Z,21.10
2018-07-27T00:38:10.056Z,21.00
2018-07-27T00:40:37.315Z,21.00
2018-07-27T00:43:04.772Z,20.90
2018-07-27T00:45:32.180Z,20.90
2018-07-27T00:47:59.476Z,20.90
2018-07-27T00:50:26.776Z,20.70
2018-07-27T00:52:54.044Z,20.80
2018-07-27T00:55:21.300Z,20.90
2018-07-27T00:57:48.567Z,20.70
2018-07-27T01:00:16.152Z,20.60
2018-07-27T01:02:43.488Z,20.60
2018-07-27T01:07:38.147Z,20.70
2018-07-27T01:10:05.607Z,20.50
2018-07-27T01:12:32.939Z,20.50
2018-07-27T01:15:00.253Z,20.50
2018-07-27T01:17:27.569Z,20.50
2018-07-27T01:19:54.920Z,20.40
2018-07-27T01:22:22.264Z,20.30
2018-07-27T01:24:49.606Z,20.40
2018-07-27T01:27:16.928Z,20.50
2018-07-27T01:29:44.250Z,20.40
2018-07-27T01:32:11.585Z,20.30
2018-07-27T01:34:38.935Z,20.30
2018-07-27T01:37:06.252Z,20.20
2018-07-27T01:39:33.669Z,20.20
2018-07-27T01:42:01.069Z,20.30
2018-07-27T01:46:55.681Z,20.30
2018-07-27T01:49:23.013Z,20.30
2018-07-27T01:51:50.378Z,20.30
2018-07-27T01:54:17.724Z,20.10
2018-07-27T01:56:45.022Z,20.10
2018-07-27T01:59:12.398Z,20.10
2018-07-27T02:01:39.768Z,20.00
2018-07-27T02:04:07.135Z,20.00
2018-07-27T02:06:34.497Z,19.90
2018-07-27T02:09:01.866Z,19.80
2018-07-27T02:11:29.203Z,19.70
2018-07-27T02:13:56.569Z,19.70
2018-07-27T02:16:23.877Z,19.80
2018-07-27T02:18:51.235Z,19.70
2018-07-27T02:21:18.564Z,19.70
2018-07-27T02:23:45.902Z,19.70
2018-07-27T02:26:13.210Z,19.60
2018-07-27T02:28:40.586Z,19.50
2018-07-27T02:31:08.109Z,19.50
2018-07-27T02:33:35.435Z,19.50
2018-07-27T02:36:02.772Z,19.60
2018-07-27T02:38:30.098Z,19.50
2018-07-27T02:40:57.430Z,19.40
2018-07-27T02:43:24.798Z,19.40
2018-07-27T02:45:52.125Z,19.30
2018-07-27T02:48:19.449Z,19.20
2018-07-27T02:50:46.738Z,19.10
2018-07-27T02:53:14.151Z,19.10
2018-07-27T02:55:41.497Z,19.10
2018-07-27T03:00:36.226Z,19.10
2018-07-27T03:03:03.594Z,19.20
2018-07-27T03:05:30.913Z,19.20
2018-07-27T03:07:58.248Z,19.10
2018-07-27T03:10:25.557Z,19.00
2018-07-27T03:12:52.950Z,18.80
2018-07-27T03:15:20.399Z,18.80
2018-07-27T03:17:47.782Z,18.50
2018-07-27T03:20:15.150Z,18.40
2018-07-27T03:22:42.440Z,18.50
2018-07-27T03:27:37.056Z,18.50
2018-07-27T03:30:05.140Z,18.50
2018-07-27T03:32:32.600Z,18.60
2018-07-27T03:34:59.917Z,18.70
2018-07-27T03:37:27.294Z,18.80
2018-07-27T03:39:54.757Z,19.00
2018-07-27T03:42:22.082Z,19.00
2018-07-27T03:44:49.493Z,19.00
2018-07-27T03:47:16.823Z,19.00
2018-07-27T03:49:44.167Z,19.00
2018-07-27T03:52:11.497Z,18.80
2018-07-27T03:54:38.797Z,18.80
2018-07-27T03:57:06.277Z,18.70
2018-07-27T03:59:33.614Z,18.70
2018-07-27T04:02:00.969Z,18.70
2018-07-27T04:04:28.317Z,18.60
2018-07-27T04:06:55.673Z,18.60
2018-07-27T04:11:50.361Z,18.60
2018-07-27T04:14:17.762Z,18.80
2018-07-27T04:16:45.424Z,18.90
2018-07-27T04:19:12.779Z,18.90
2018-07-27T04:21:40.077Z,19.00
2018-07-27T04:24:07.421Z,19.00
2018-07-27T04:26:34.729Z,19.00
2018-07-27T04:31:29.485Z,19.10
2018-07-27T04:33:58.002Z,19.20
2018-07-27T04:36:25.361Z,19.20
2018-07-27T04:38:52.674Z,19.30
2018-07-27T04:41:20.063Z,19.40
2018-07-27T04:43:47.442Z,19.30
2018-07-27T04:46:14.813Z,19.40
2018-07-27T04:48:44.193Z,19.30
2018-07-27T04:51:11.545Z,19.40
2018-07-27T04:53:38.925Z,19.60
2018-07-27T04:56:06.310Z,20.70
2018-07-27T04:58:33.709Z,22.80
2018-07-27T05:01:01.102Z,24.10
2018-07-27T05:03:28.562Z,25.30
2018-07-27T05:05:56.014Z,26.60
2018-07-27T05:08:23.413Z,27.80
2018-07-27T05:10:50.774Z,28.60
2018-07-27T05:13:19.099Z,28.80
2018-07-27T05:15:47.293Z,27.60
2018-07-27T05:18:15.349Z,26.50
2018-07-27T05:20:43.567Z,25.90
2018-07-27T05:25:38.330Z,25.00
2018-07-27T05:28:05.718Z,24.40
2018-07-27T05:30:33.113Z,24.10
2018-07-27T05:33:00.470Z,24.10
2018-07-27T05:35:27.810Z,24.00
2018-07-27T05:37:55.298Z,24.00
2018-07-27T05:40:22.811Z,23.90
2018-07-27T05:42:50.226Z,23.90
2018-07-27T05:45:17.626Z,23.80
2018-07-27T05:47:44.991Z,23.80
2018-07-27T05:50:12.336Z,23.70
2018-07-27T05:52:39.768Z,23.70
2018-07-27T05:57:34.549Z,23.90
2018-07-27T06:00:01.931Z,23.90
2018-07-27T06:02:29.323Z,23.80
2018-07-27T06:04:56.853Z,23.80
2018-07-27T06:07:24.187Z,23.80
2018-07-27T06:09:51.535Z,23.80
2018-07-27T06:12:18.892Z,23.90
2018-07-27T06:14:46.246Z,23.80
2018-07-27T06:17:13.614Z,23.70
2018-07-27T06:19:40.968Z,23.80
2018-07-27T06:22:08.314Z,23.90
2018-07-27T06:24:47.681Z,23.80
2018-07-27T06:27:15.741Z,23.80
2018-07-27T06:29:43.169Z,23.90
2018-07-27T06:32:11.095Z,24.00
2018-07-27T06:34:38.540Z,24.00
2018-07-27T06:39:33.302Z,24.10
2018-07-27T06:42:00.780Z,24.20
2018-07-27T06:44:28.299Z,24.20
2018-07-27T06:49:22.986Z,24.30
2018-07-27T06:51:50.430Z,24.40
2018-07-27T06:54:17.819Z,24.40
2018-07-27T06:56:45.320Z,24.50
2018-07-27T06:59:13.086Z,24.50
2018-07-27T07:01:40.744Z,24.40
2018-07-27T07:04:08.101Z,24.50
2018-07-27T07:06:35.441Z,24.60
2018-07-27T07:11:30.319Z,24.70
2018-07-27T07:13:57.675Z,24.70
2018-07-27T07:16:25.096Z,24.90
2018-07-27T07:18:52.494Z,25.00
2018-07-27T07:23:47.187Z,24.90
2018-07-27T07:26:14.750Z,25.00
2018-07-27T07:28:41.970Z,25.10
2018-07-27T07:31:09.443Z,25.20
2018-07-27T07:33:36.785Z,25.30
2018-07-27T07:36:04.211Z,25.40
2018-07-27T07:38:31.588Z,25.50
2018-07-27T07:40:58.911Z,25.60
2018-07-27T07:43:26.283Z,25.60
2018-07-27T07:45:53.623Z,25.70
2018-07-27T07:48:20.977Z,25.80
2018-07-27T07:50:48.369Z,25.90
2018-07-27T07:53:15.722Z,25.90
2018-07-27T07:55:43.087Z,26.10
2018-07-27T07:58:10.434Z,26.10
2018-07-27T08:00:37.786Z,26.30
2018-07-27T08:03:05.454Z,26.30
2018-07-27T08:05:32.864Z,26.30
2018-07-27T08:08:00.147Z,26.30
2018-07-27T08:10:27.479Z,26.40
2018-07-27T08:12:54.841Z,26.50
2018-07-27T08:15:22.192Z,26.60
2018-07-27T08:17:49.559Z,26.60
2018-07-27T08:20:16.913Z,26.70
2018-07-27T08:22:44.303Z,26.90
2018-07-27T08:25:11.674Z,26.90
2018-07-27T08:27:39.017Z,27.00
2018-07-27T08:30:06.533Z,27.00
2018-07-27T08:32:33.886Z,27.10
2018-07-27T08:35:01.256Z,27.20
2018-07-27T08:37:28.609Z,27.30
2018-07-27T08:39:55.958Z,27.40
2018-07-27T08:42:23.327Z,27.40
2018-07-27T08:44:50.701Z,27.40
2018-07-27T08:47:18.054Z,27.50
2018-07-27T08:52:12.694Z,27.70
2018-07-27T08:54:40.046Z,27.70
2018-07-27T08:57:07.439Z,27.80
2018-07-27T08:59:34.950Z,27.80
2018-07-27T09:02:02.323Z,27.90
2018-07-27T09:04:29.680Z,27.90
2018-07-27T09:06:57.091Z,28.10
2018-07-27T09:09:24.484Z,28.10
2018-07-27T09:11:51.834Z,28.20
2018-07-27T09:14:19.189Z,28.20
2018-07-27T09:16:46.574Z,28.30
2018-07-27T09:19:13.956Z,28.30
2018-07-27T09:21:42.090Z,28.20
2018-07-27T09:24:09.607Z,28.30
2018-07-27T09:26:36.945Z,28.30
2018-07-27T09:31:31.698Z,28.40
2018-07-27T09:33:59.121Z,28.40
2018-07-27T09:36:26.460Z,28.50
2018-07-27T09:38:53.798Z,28.50
2018-07-27T09:41:21.163Z,28.50
2018-07-27T09:43:48.490Z,28.60
2018-07-27T09:46:18.062Z,28.70
2018-07-27T09:48:50.530Z,28.60
2018-07-27T09:51:18.445Z,28.70
2018-07-27T09:53:45.779Z,28.80
2018-07-27T09:56:13.156Z,28.80
2018-07-27T09:58:40.535Z,28.80
2018-07-27T10:01:12.510Z,28.80
2018-07-27T10:03:39.894Z,28.90
2018-07-27T10:06:07.229Z,28.80
2018-07-27T10:08:34.775Z,28.80
2018-07-27T10:13:29.870Z,28.90
2018-07-27T10:15:57.184Z,29.00
2018-07-27T10:20:51.890Z,29.00
2018-07-27T10:23:19.262Z,28.90
2018-07-27T10:25:46.584Z,28.70
2018-07-27T10:28:13.929Z,28.70
2018-07-27T10:33:08.606Z,28.60
2018-07-27T10:35:36.222Z,28.70
2018-07-27T10:38:03.798Z,28.80
2018-07-27T10:40:31.245Z,28.90
2018-07-27T10:42:58.683Z,29.10
2018-07-27T10:45:26.121Z,29.20
2018-07-27T10:50:21.094Z,29.40
2018-07-27T10:52:48.401Z,29.40
2018-07-27T10:55:16.238Z,29.50
2018-07-27T10:57:43.610Z,29.70
2018-07-27T11:00:13.399Z,29.60
2018-07-27T11:02:40.931Z,29.50
2018-07-27T11:05:08.594Z,29.40
2018-07-27T11:07:36.025Z,29.40
2018-07-27T11:12:31.502Z,29.60
2018-07-27T11:14:58.934Z,29.60
2018-07-27T11:19:54.061Z,29.90
2018-07-27T11:22:21.454Z,30.10
2018-07-27T11:27:16.512Z,30.20
2018-07-27T11:29:43.995Z,30.10
2018-07-27T11:32:11.377Z,30.00
2018-07-27T11:34:38.827Z,30.20
2018-07-27T11:37:06.282Z,30.30
2018-07-27T11:39:33.622Z,30.30
2018-07-27T11:42:01.191Z,30.20
2018-07-27T11:44:28.777Z,30.10
2018-07-27T11:49:23.776Z,29.90
2018-07-27T11:51:51.166Z,29.80
2018-07-27T11:54:18.530Z,30.00
2018-07-27T11:56:45.925Z,29.70
2018-07-27T11:59:13.341Z,29.70
2018-07-27T12:01:40.685Z,29.80
2018-07-27T12:04:07.982Z,29.90
2018-07-27T12:06:35.314Z,30.10
2018-07-27T12:11:30.296Z,30.00
2018-07-27T12:13:57.744Z,30.10
2018-07-27T12:16:25.072Z,30.20
2018-07-27T12:18:52.401Z,30.30
2018-07-27T12:21:19.887Z,30.40
2018-07-27T12:23:47.121Z,30.40
2018-07-27T12:26:14.569Z,30.40
2018-07-27T12:28:42.000Z,30.20
2018-07-27T12:31:09.439Z,30.00
2018-07-27T12:33:36.794Z,29.90
2018-07-27T12:36:04.387Z,29.80
2018-07-27T12:38:31.716Z,29.70
2018-07-27T12:40:59.125Z,29.70
2018-07-27T12:43:26.746Z,29.60
2018-07-27T12:45:54.085Z,29.70
2018-07-27T12:48:21.415Z,29.50
2018-07-27T12:50:48.733Z,29.50
2018-07-27T12:53:16.094Z,29.60
2018-07-27T12:55:43.401Z,29.70
2018-07-27T12:58:10.724Z,29.70
2018-07-27T13:00:38.022Z,29.90
2018-07-27T13:03:05.773Z,29.80
2018-07-27T13:05:33.180Z,30.00
2018-07-27T13:08:00.450Z,30.00
2018-07-27T13:10:27.809Z,30.10
2018-07-27T13:12:55.173Z,30.10
2018-07-27T13:15:22.522Z,30.20
2018-07-27T13:20:17.187Z,30.30
2018-07-27T13:22:44.550Z,30.30
2018-07-27T13:25:12.473Z,30.10
2018-07-27T13:27:39.864Z,30.20
2018-07-27T13:32:34.835Z,30.50
2018-07-27T13:35:02.543Z,30.60
2018-07-27T13:39:59.910Z,30.90
2018-07-27T13:42:29.262Z,31.00
2018-07-27T13:44:56.717Z,30.90
2018-07-27T13:47:24.389Z,31.00
2018-07-27T13:49:51.988Z,31.00
2018-07-27T13:52:19.487Z,31.00
2018-07-27T13:54:46.930Z,31.00
2018-07-27T13:57:14.654Z,31.10
2018-07-27T13:59:42.102Z,31.00
2018-07-27T14:02:09.937Z,31.10
2018-07-27T14:04:37.520Z,31.10
2018-07-27T14:07:05.834Z,31.30
2018-07-27T14:09:33.329Z,31.30
2018-07-27T14:12:00.712Z,31.20
2018-07-27T14:14:28.401Z,31.30
2018-07-27T14:16:55.910Z,31.30
2018-07-27T14:19:23.899Z,31.20
2018-07-27T14:21:51.335Z,31.30
2018-07-27T14:24:19.179Z,31.30
2018-07-27T14:26:46.560Z,31.30
2018-07-27T14:29:14.212Z,31.30
2018-07-27T14:31:41.656Z,31.30
2018-07-27T14:34:09.266Z,31.40
2018-07-27T14:36:38.930Z,31.30
2018-07-27T14:39:07.580Z,31.40
2018-07-27T14:41:34.974Z,31.30
2018-07-27T14:44:03.058Z,31.30
2018-07-27T14:46:30.587Z,31.30
2018-07-27T14:48:57.974Z,31.40
2018-07-27T14:51:25.433Z,31.40
2018-07-27T14:53:52.819Z,31.40
2018-07-27T14:56:20.245Z,31.50
2018-07-27T14:58:47.790Z,31.50
2018-07-27T15:01:15.122Z,31.50
2018-07-27T15:03:43.596Z,31.50
2018-07-27T15:06:11.063Z,31.50
2018-07-27T15:08:38.441Z,31.60
2018-07-27T15:11:06.195Z,31.70
2018-07-27T15:13:33.589Z,31.60
2018-07-27T15:16:01.018Z,31.60
2018-07-27T15:18:28.687Z,31.50
2018-07-27T15:20:56.159Z,31.50
2018-07-27T15:23:23.537Z,31.50
2018-07-27T15:25:50.965Z,31.50
2018-07-27T15:28:19.481Z,31.50
2018-07-27T15:30:46.917Z,31.50
2018-07-27T15:33:14.262Z,31.50
2018-07-27T15:35:41.716Z,31.50
2018-07-27T15:38:09.121Z,31.50
2018-07-27T15:40:36.542Z,31.50
2018-07-27T15:43:03.997Z,31.50
2018-07-27T15:45:31.493Z,31.50
2018-07-27T15:47:59.942Z,31.50
2018-07-27T15:50:27.350Z,31.50
2018-07-27T15:52:54.850Z,31.60
2018-07-27T15:57:50.691Z,31.60
2018-07-27T16:00:18.173Z,31.50
2018-07-27T16:02:45.533Z,31.50
2018-07-27T16:05:12.989Z,31.50
2018-07-27T16:07:40.308Z,31.50
2018-07-27T16:10:07.729Z,31.40
2018-07-27T16:12:35.052Z,31.40
2018-07-27T16:15:02.506Z,31.40
2018-07-27T16:17:29.860Z,31.30
2018-07-27T16:19:58.192Z,31.40
2018-07-27T16:22:26.315Z,31.20
2018-07-27T16:24:53.687Z,31.10
2018-07-27T16:27:21.026Z,31.10
2018-07-27T16:29:48.408Z,31.10
2018-07-27T16:32:15.795Z,31.10
2018-07-27T16:34:43.079Z,31.10
2018-07-27T16:37:10.558Z,31.10
2018-07-27T16:39:37.891Z,31.10
2018-07-27T16:42:05.273Z,31.00
2018-07-27T16:47:00.166Z,31.10
2018-07-27T16:49:27.521Z,31.10
2018-07-27T16:54:22.378Z,31.00
2018-07-27T16:56:49.687Z,31.10
2018-07-27T16:59:17.045Z,31.10
2018-07-27T17:06:39.109Z,31.00
2018-07-27T17:09:08.016Z,31.00
2018-07-27T17:11:35.642Z,30.90
2018-07-27T17:14:03.182Z,30.80
2018-07-27T17:16:30.512Z,30.70
2018-07-27T17:18:58.121Z,30.60
2018-07-27T17:21:25.597Z,30.50
2018-07-27T17:23:53.042Z,30.40
2018-07-27T17:26:20.407Z,30.50
2018-07-27T17:28:47.730Z,30.40
2018-07-27T17:31:15.189Z,30.40
2018-07-27T17:33:42.639Z,30.30
2018-07-27T17:36:10.562Z,30.20
2018-07-27T17:38:37.960Z,30.00
2018-07-27T17:41:05.849Z,29.90
2018-07-27T17:43:33.203Z,29.90
2018-07-27T17:46:00.569Z,29.80
2018-07-27T17:48:27.929Z,29.80
2018-07-27T17:50:55.273Z,29.70
2018-07-27T17:53:23.718Z,29.70
2018-07-27T17:55:51.101Z,29.60
2018-07-27T17:58:18.510Z,29.60
2018-07-27T18:00:46.923Z,29.60
2018-07-27T18:03:14.267Z,29.60
2018-07-27T18:05:41.648Z,29.60
2018-07-27T18:08:08.974Z,29.50
2018-07-27T18:10:36.341Z,29.40
2018-07-27T18:15:31.337Z,29.30
2018-07-27T18:17:58.670Z,29.20
2018-07-27T18:20:27.130Z,29.20
2018-07-27T18:22:54.577Z,29.10
2018-07-27T18:25:22.022Z,29.10
2018-07-27T18:27:49.432Z,29.10
2018-07-27T18:30:16.823Z,29.00
2018-07-27T18:32:44.317Z,29.00
2018-07-27T18:35:11.761Z,28.90
2018-07-27T18:40:08.235Z,28.90
2018-07-27T18:42:35.558Z,28.90
2018-07-27T18:45:03.237Z,28.80
2018-07-27T18:47:30.886Z,28.70
2018-07-27T18:49:58.370Z,28.60
2018-07-27T18:52:25.793Z,28.60
2018-07-27T18:57:20.451Z,28.60
2018-07-27T18:59:47.866Z,28.50
2018-07-27T19:02:16.225Z,28.50
2018-07-27T19:04:43.585Z,28.40
2018-07-27T19:07:10.993Z,28.40
2018-07-27T19:09:38.366Z,28.30
2018-07-27T19:12:05.789Z,28.20
2018-07-27T19:14:33.249Z,28.10
2018-07-27T19:17:00.997Z,28.00
2018-07-27T19:21:55.845Z,28.00
2018-07-27T19:26:50.521Z,27.70
2018-07-27T19:29:17.900Z,27.50
2018-07-27T19:31:45.246Z,27.40
2018-07-27T19:34:12.590Z,27.40
2018-07-27T19:36:39.985Z,27.30
2018-07-27T19:39:09.129Z,27.20
2018-07-27T19:41:36.482Z,27.20
2018-07-27T19:44:03.925Z,27.10
2018-07-27T19:46:31.273Z,27.00
2018-07-27T19:48:58.718Z,26.80
2018-07-27T19:51:27.089Z,26.70
2018-07-27T19:53:54.532Z,26.50
2018-07-27T19:56:22.966Z,26.20
2018-07-27T19:58:54.084Z,25.90
2018-07-27T20:01:21.499Z,25.80
2018-07-27T20:03:48.837Z,25.80
2018-07-27T20:06:16.184Z,25.80
2018-07-27T20:08:44.344Z,25.70
2018-07-27T20:13:39.064Z,25.60
2018-07-27T20:16:06.391Z,25.60
2018-07-27T20:18:33.733Z,25.50
2018-07-27T20:23:28.513Z,25.30
2018-07-27T20:25:55.901Z,25.30
2018-07-27T20:28:23.666Z,25.30
2018-07-27T20:30:51.049Z,25.20
2018-07-27T20:33:18.383Z,25.20
2018-07-27T20:35:45.681Z,25.10
2018-07-27T20:38:13.064Z,24.90
2018-07-27T20:43:07.944Z,24.60
2018-07-27T20:45:37.793Z,24.40
2018-07-27T20:48:05.487Z,24.30
2018-07-27T20:50:32.966Z,24.40
2018-07-27T20:53:01.332Z,24.40
2018-07-27T20:55:28.660Z,24.40
2018-07-27T20:57:55.988Z,24.30
2018-07-27T21:00:23.494Z,24.30
2018-07-27T21:02:50.877Z,24.20
2018-07-27T21:05:18.255Z,24.30
2018-07-27T21:07:45.669Z,24.20
2018-07-27T21:10:13.341Z,24.20
2018-07-27T21:15:09.274Z,23.90
2018-07-27T21:17:36.910Z,23.80
2018-07-27T21:20:04.833Z,23.60
2018-07-27T21:22:33.261Z,23.60
2018-07-27T21:25:00.636Z,23.50
2018-07-27T21:27:28.044Z,23.50
2018-07-27T21:29:55.411Z,23.50
2018-07-27T21:32:22.786Z,23.40
2018-07-27T21:34:50.133Z,23.30
2018-07-27T21:37:17.540Z,23.20
2018-07-27T21:39:44.891Z,23.20
2018-07-27T21:42:12.300Z,23.10
2018-07-27T21:44:39.696Z,23.00
2018-07-27T21:47:07.093Z,23.00
2018-07-27T21:49:34.424Z,22.90
2018-07-27T21:52:01.872Z,22.70
2018-07-27T21:54:29.304Z,22.70
2018-07-27T21:56:56.669Z,22.70
2018-07-27T21:59:24.018Z,22.70
2018-07-27T22:01:51.469Z,22.60
2018-07-27T22:04:18.919Z,22.50
2018-07-27T22:06:46.275Z,22.50
2018-07-27T22:09:13.672Z,22.40
2018-07-27T22:11:41.077Z,22.40
2018-07-27T22:14:08.466Z,22.40
2018-07-27T22:16:36.861Z,22.20
2018-07-27T22:19:04.230Z,22.00
2018-07-27T22:21:31.774Z,22.10
2018-07-27T22:23:59.130Z,22.20
2018-07-27T22:26:26.468Z,22.30
2018-07-27T22:28:53.774Z,22.30
2018-07-27T22:31:21.133Z,22.50
2018-07-27T22:33:48.463Z,22.50
2018-07-27T22:36:15.808Z,22.50
2018-07-27T22:38:43.191Z,22.60
2018-07-27T22:41:10.631Z,22.50
2018-07-27T22:43:38.006Z,22.40
2018-07-27T22:46:05.510Z,22.50
2018-07-27T22:51:00.210Z,22.60
2018-07-27T22:53:27.569Z,22.80
2018-07-27T22:55:54.860Z,22.90
2018-07-27T22:58:22.232Z,22.90
2018-07-27T23:00:49.546Z,22.80
2018-07-27T23:03:16.894Z,22.60
2018-07-27T23:05:44.237Z,22.60
2018-07-27T23:08:11.604Z,22.50
2018-07-27T23:10:38.888Z,22.50
2018-07-27T23:13:06.393Z,22.40
2018-07-27T23:15:33.727Z,22.40
2018-07-27T23:18:01.042Z,22.30
2018-07-27T23:20:28.435Z,22.30
2018-07-27T23:22:55.778Z,22.30
2018-07-27T23:25:23.179Z,22.40
2018-07-27T23:27:50.491Z,22.30
2018-07-27T23:30:17.843Z,22.20
2018-07-27T23:32:46.289Z,22.10
2018-07-27T23:35:13.659Z,22.00
2018-07-27T23:37:40.984Z,21.90
2018-07-27T23:40:08.778Z,21.80
2018-07-27T23:42:36.097Z,21.60
2018-07-27T23:47:31.293Z,21.50
2018-07-27T23:49:58.636Z,21.50
2018-07-27T23:52:25.982Z,21.60
2018-07-27T23:54:53.440Z,21.60
2018-07-27T23:57:20.770Z,21.50
2018-07-27T23:59:48.106Z,21.10
